createdAt,value
2019-05-07T00:02:49.412Z,9.83
2019-05-07T00:05:54.080Z,9.77
2019-05-07T00:08:58.982Z,11.23
2019-05-07T00:12:05.138Z,11.00
2019-05-07T00:15:09.802Z,8.90
2019-05-07T00:18:14.503Z,18.20
2019-05-07T00:21:18.933Z,10.47
2019-05-07T00:24:24.131Z,11.97
2019-05-07T00:27:28.897Z,13.13
2019-05-07T00:30:33.408Z,12.57
2019-05-07T00:33:38.711Z,14.40
2019-05-07T00:36:53.679Z,11.33
2019-05-07T00:40:09.856Z,10.20
2019-05-07T00:43:22.694Z,11.80
2019-05-07T00:46:29.127Z,9.53
2019-05-07T00:49:33.564Z,10.63
2019-05-07T00:52:38.280Z,9.57
2019-05-07T00:55:42.787Z,10.87
2019-05-07T00:58:47.235Z,10.23
2019-05-07T01:01:52.820Z,12.07
2019-05-07T01:04:57.377Z,15.13
2019-05-07T01:08:02.550Z,9.00
2019-05-07T01:11:07.388Z,10.27
2019-05-07T01:14:12.446Z,10.80
2019-05-07T01:17:17.043Z,11.83
2019-05-07T01:20:22.145Z,14.33
2019-05-07T01:23:27.027Z,12.57
2019-05-07T01:26:32.913Z,13.40
2019-05-07T01:29:37.583Z,10.87
2019-05-07T01:32:53.316Z,14.13
2019-05-07T01:36:15.628Z,10.60
2019-05-07T01:39:20.064Z,12.33
2019-05-07T01:42:24.799Z,11.57
2019-05-07T01:45:43.275Z,11.73
2019-05-07T01:48:35.401Z,16.80
2019-05-07T01:51:42.107Z,12.67
2019-05-07T01:54:47.485Z,11.97
2019-05-07T01:57:52.462Z,9.70
2019-05-07T02:00:56.881Z,13.93
2019-05-07T02:04:03.238Z,10.17
2019-05-07T02:07:15.546Z,10.47
2019-05-07T02:10:37.434Z,11.60
2019-05-07T02:13:42.112Z,12.67
2019-05-07T02:16:46.598Z,11.20
2019-05-07T02:19:52.758Z,11.80
2019-05-07T02:22:57.631Z,11.07
2019-05-07T02:26:02.552Z,13.40
2019-05-07T02:29:07.304Z,11.80
2019-05-07T02:32:13.254Z,14.73
2019-05-07T02:35:17.948Z,10.33
2019-05-07T02:38:33.992Z,10.97
2019-05-07T02:41:38.819Z,16.37
2019-05-07T02:44:59.719Z,13.63
2019-05-07T02:48:04.159Z,10.53
2019-05-07T02:51:16.567Z,14.53
2019-05-07T02:54:28.423Z,12.53
2019-05-07T02:57:34.060Z,11.17
2019-05-07T03:00:39.266Z,13.67
2019-05-07T03:03:44.914Z,15.13
2019-05-07T03:06:49.499Z,13.20
2019-05-07T03:09:54.143Z,10.77
2019-05-07T03:12:58.749Z,13.73
2019-05-07T03:16:03.942Z,11.60
2019-05-07T03:19:08.541Z,11.07
2019-05-07T03:22:13.992Z,14.33
2019-05-07T03:25:23.269Z,13.00
2019-05-07T03:28:28.087Z,12.47
2019-05-07T03:31:36.020Z,11.07
2019-05-07T03:34:46.728Z,13.83
2019-05-07T03:37:48.548Z,12.00
2019-05-07T03:40:53.336Z,10.90
2019-05-07T03:43:59.443Z,13.17
2019-05-07T03:47:23.559Z,12.03
2019-05-07T03:50:26.699Z,10.27
2019-05-07T03:53:33.879Z,13.93
2019-05-07T03:56:37.895Z,15.23
2019-05-07T03:59:43.173Z,13.40
2019-05-07T04:02:47.948Z,15.53
2019-05-07T04:05:53.333Z,12.63
2019-05-07T04:08:57.913Z,13.43
2019-05-07T04:12:03.825Z,8.87
2019-05-07T04:15:08.798Z,10.77
2019-05-07T04:18:13.618Z,11.77
2019-05-07T04:21:18.114Z,10.73
2019-05-07T04:24:27.125Z,10.20
2019-05-07T04:27:36.125Z,12.07
2019-05-07T04:30:43.868Z,11.40
2019-05-07T04:33:47.689Z,12.70
2019-05-07T04:36:53.466Z,13.60
2019-05-07T04:39:58.142Z,10.43
2019-05-07T04:43:03.021Z,11.63
2019-05-07T04:46:07.721Z,14.10
2019-05-07T04:49:13.099Z,11.30
2019-05-07T04:52:25.273Z,11.67
2019-05-07T04:55:29.708Z,12.80
2019-05-07T04:58:34.174Z,15.37
2019-05-07T05:01:43.392Z,16.03
2019-05-07T05:04:46.836Z,12.07
2019-05-07T05:07:53.311Z,17.23
2019-05-07T05:10:57.745Z,17.13
2019-05-07T05:14:07.155Z,12.00
2019-05-07T05:17:09.269Z,11.57
2019-05-07T05:20:14.714Z,17.87
2019-05-07T05:23:23.247Z,15.47
2019-05-07T05:26:27.685Z,15.93
2019-05-07T05:29:34.545Z,17.67
2019-05-07T05:32:38.990Z,17.53
2019-05-07T05:35:43.433Z,19.77
2019-05-07T05:38:47.873Z,15.37
2019-05-07T05:41:53.955Z,19.80
2019-05-07T05:44:58.709Z,20.37
2019-05-07T05:48:07.390Z,17.60
2019-05-07T05:51:14.927Z,19.97
2019-05-07T05:54:37.403Z,22.87
2019-05-07T05:57:43.482Z,21.87
2019-05-07T06:01:06.284Z,21.37
2019-05-07T06:04:22.241Z,18.33
2019-05-07T06:07:31.984Z,20.53
2019-05-07T06:10:44.685Z,17.93
2019-05-07T06:13:52.715Z,15.77
2019-05-07T06:17:08.093Z,15.30
2019-05-07T06:20:14.913Z,14.40
2019-05-07T06:23:35.720Z,16.57
2019-05-07T06:26:42.044Z,17.77
2019-05-07T06:29:46.620Z,14.50
2019-05-07T06:32:52.297Z,15.23
2019-05-07T06:35:56.772Z,14.43
2019-05-07T06:39:02.869Z,14.27
2019-05-07T06:42:25.609Z,11.87
2019-05-07T06:45:43.220Z,15.40
2019-05-07T06:48:47.677Z,13.77
2019-05-07T06:51:52.918Z,15.10
2019-05-07T06:54:58.071Z,18.40
2019-05-07T06:58:03.672Z,12.27
2019-05-07T07:01:16.339Z,12.70
2019-05-07T07:04:22.629Z,10.83
2019-05-07T07:07:33.929Z,13.87
2019-05-07T07:10:53.159Z,13.50
2019-05-07T07:13:57.605Z,16.53
2019-05-07T07:17:02.373Z,10.93
2019-05-07T07:20:08.052Z,11.07
2019-05-07T07:23:12.498Z,12.43
2019-05-07T07:26:17.408Z,11.03
2019-05-07T07:29:23.511Z,10.13
2019-05-07T07:32:39.162Z,10.83
2019-05-07T07:35:43.623Z,9.13
2019-05-07T07:38:48.086Z,9.17
2019-05-07T07:41:54.202Z,10.77
2019-05-07T07:45:16.012Z,11.63
2019-05-07T07:48:24.070Z,9.57
2019-05-07T07:51:37.847Z,11.63
2019-05-07T07:54:33.068Z,12.40
2019-05-07T07:57:48.139Z,11.53
2019-05-07T08:01:03.211Z,9.40
2019-05-07T08:04:08.033Z,10.30
2019-05-07T08:07:12.611Z,10.97
2019-05-07T08:10:17.296Z,14.27
2019-05-07T08:13:22.911Z,8.70
2019-05-07T08:16:27.467Z,10.87
2019-05-07T08:19:32.832Z,10.20
2019-05-07T08:22:37.546Z,13.10
2019-05-07T08:25:47.922Z,9.50
2019-05-07T08:28:52.502Z,10.17
2019-05-07T08:32:02.509Z,14.57
2019-05-07T08:35:14.285Z,17.73
2019-05-07T08:38:19.234Z,16.43
2019-05-07T08:41:26.525Z,14.00
2019-05-07T08:44:38.080Z,13.60
2019-05-07T08:47:44.493Z,13.93
2019-05-07T08:50:49.209Z,12.77
2019-05-07T08:54:05.485Z,12.90
2019-05-07T08:57:11.746Z,12.40
2019-05-07T09:00:18.940Z,13.10
2019-05-07T09:03:42.922Z,10.47
2019-05-07T09:06:47.181Z,13.33
2019-05-07T09:09:52.303Z,14.07
2019-05-07T09:12:57.253Z,11.87
2019-05-07T09:16:02.411Z,12.87
2019-05-07T09:19:07.518Z,15.50
2019-05-07T09:22:12.746Z,10.67
2019-05-07T09:25:17.505Z,12.33
2019-05-07T09:28:22.663Z,8.77
2019-05-07T09:31:28.730Z,9.77
2019-05-07T09:34:37.520Z,10.27
2019-05-07T09:37:42.266Z,15.63
2019-05-07T09:40:46.720Z,13.37
2019-05-07T09:43:51.885Z,11.33
2019-05-07T09:46:56.516Z,14.17
2019-05-07T09:50:05.533Z,13.53
2019-05-07T09:53:07.625Z,13.10
2019-05-07T09:56:12.405Z,13.10
2019-05-07T09:59:16.955Z,10.53
2019-05-07T10:02:22.717Z,12.07
2019-05-07T10:05:27.264Z,11.30
2019-05-07T10:08:33.558Z,9.53
2019-05-07T10:11:52.462Z,7.90
2019-05-07T10:14:57.073Z,14.70
2019-05-07T10:18:08.916Z,13.27
2019-05-07T10:21:13.365Z,14.13
2019-05-07T10:24:17.892Z,11.97
2019-05-07T10:27:22.934Z,11.67
2019-05-07T10:30:27.667Z,6.73
2019-05-07T10:33:32.151Z,10.83
2019-05-07T10:36:36.551Z,8.90
2019-05-07T10:39:43.009Z,11.27
2019-05-07T10:42:47.693Z,13.33
2019-05-07T10:46:05.430Z,9.00
2019-05-07T10:49:12.348Z,11.57
2019-05-07T10:52:16.859Z,9.40
2019-05-07T10:55:22.314Z,11.07
2019-05-07T10:58:26.840Z,7.60
2019-05-07T11:01:36.474Z,9.63
2019-05-07T11:04:43.559Z,7.37
2019-05-07T11:07:47.680Z,6.07
2019-05-07T11:10:52.271Z,10.87
2019-05-07T11:13:56.653Z,11.13
2019-05-07T11:17:11.979Z,8.90
2019-05-07T11:20:17.466Z,8.40
2019-05-07T11:23:22.323Z,8.20
2019-05-07T11:26:27.307Z,7.67
2019-05-07T11:29:33.039Z,10.80
2019-05-07T11:32:38.835Z,9.57
2019-05-07T11:35:43.283Z,9.73
2019-05-07T11:38:48.002Z,6.10
2019-05-07T11:41:54.083Z,9.63
2019-05-07T11:44:58.781Z,5.63
2019-05-07T11:48:04.395Z,7.00
2019-05-07T11:51:12.274Z,5.57
2019-05-07T11:54:16.766Z,7.93
2019-05-07T11:57:22.142Z,6.20
2019-05-07T12:00:36.038Z,8.30
2019-05-07T12:03:42.786Z,7.50
2019-05-07T12:06:46.660Z,8.13
2019-05-07T12:09:52.644Z,6.07
2019-05-07T12:12:57.435Z,8.80
2019-05-07T12:16:03.032Z,7.83
2019-05-07T12:19:07.654Z,6.23
2019-05-07T12:22:12.341Z,8.23
2019-05-07T12:25:24.158Z,7.40
2019-05-07T12:28:28.597Z,7.20
2019-05-07T12:31:52.375Z,11.67
2019-05-07T12:34:58.407Z,6.63
2019-05-07T12:38:03.242Z,6.80
2019-05-07T12:41:26.203Z,11.83
2019-05-07T12:44:31.991Z,8.20
2019-05-07T12:47:36.612Z,7.53
2019-05-07T12:50:43.173Z,6.87
2019-05-07T12:53:52.516Z,7.10
2019-05-07T12:56:58.664Z,7.87
2019-05-07T13:00:22.929Z,7.67
2019-05-07T13:03:34.802Z,8.17
2019-05-07T13:06:40.913Z,7.10
2019-05-07T13:09:45.338Z,7.20
2019-05-07T13:12:49.777Z,8.70
2019-05-07T13:15:54.234Z,7.13
2019-05-07T13:18:58.913Z,8.33
2019-05-07T13:22:03.644Z,7.90
2019-05-07T13:25:08.434Z,6.37
2019-05-07T13:28:12.866Z,6.60
2019-05-07T13:31:22.728Z,6.80
2019-05-07T13:34:27.018Z,6.20
2019-05-07T13:37:33.119Z,7.13
2019-05-07T13:40:37.661Z,9.13
2019-05-07T13:43:53.985Z,6.40
2019-05-07T13:47:09.314Z,7.73
2019-05-07T13:50:14.098Z,7.50
2019-05-07T13:53:19.109Z,6.63
2019-05-07T13:56:23.628Z,8.20
2019-05-07T13:59:28.129Z,6.70
2019-05-07T14:02:32.597Z,8.90
2019-05-07T14:05:37.413Z,7.07
2019-05-07T14:08:43.504Z,3.67
2019-05-07T14:11:48.212Z,7.43
2019-05-07T14:14:53.278Z,7.20
2019-05-07T14:17:58.178Z,9.23
2019-05-07T14:21:04.491Z,8.73
2019-05-07T14:24:09.217Z,7.63
2019-05-07T14:27:13.678Z,6.20
2019-05-07T14:30:21.684Z,8.37
2019-05-07T14:33:45.902Z,7.13
2019-05-07T14:36:54.721Z,7.97
2019-05-07T14:39:59.454Z,10.00
2019-05-07T14:43:17.602Z,6.43
2019-05-07T14:46:22.842Z,7.23
2019-05-07T14:49:27.675Z,6.73
2019-05-07T14:52:35.621Z,7.00
2019-05-07T14:55:38.375Z,8.33
2019-05-07T14:58:42.891Z,9.03
2019-05-07T15:01:47.624Z,6.40
2019-05-07T15:04:52.624Z,6.80
2019-05-07T15:08:08.244Z,7.40
2019-05-07T15:11:03.368Z,6.97
2019-05-07T15:14:08.187Z,7.40
2019-05-07T15:17:14.558Z,4.60
2019-05-07T15:20:18.993Z,8.53
2019-05-07T15:23:28.629Z,6.20
2019-05-07T15:26:33.140Z,6.30
2019-05-07T15:29:37.593Z,7.37
2019-05-07T15:32:42.770Z,5.80
2019-05-07T15:35:47.423Z,7.10
2019-05-07T15:38:52.269Z,8.70
2019-05-07T15:41:56.860Z,8.20
2019-05-07T15:45:02.250Z,5.27
2019-05-07T15:48:07.293Z,12.13
2019-05-07T15:51:12.041Z,5.03
2019-05-07T15:54:16.753Z,7.63
2019-05-07T15:57:25.795Z,5.07
2019-05-07T16:00:33.478Z,6.60
2019-05-07T16:03:39.834Z,9.10
2019-05-07T16:06:44.285Z,7.93
2019-05-07T16:09:48.736Z,4.77
2019-05-07T16:12:53.664Z,6.27
2019-05-07T16:15:58.178Z,6.43
2019-05-07T16:19:04.637Z,6.10
2019-05-07T16:22:12.731Z,9.43
2019-05-07T16:25:17.270Z,6.70
2019-05-07T16:28:21.980Z,8.47
2019-05-07T16:31:26.768Z,6.17
2019-05-07T16:34:32.525Z,6.93
2019-05-07T16:37:37.078Z,6.07
2019-05-07T16:40:42.909Z,6.60
2019-05-07T16:43:47.704Z,7.47
2019-05-07T16:46:53.501Z,4.07
2019-05-07T16:49:58.294Z,4.90
2019-05-07T16:53:02.973Z,7.00
2019-05-07T16:56:07.751Z,8.07
2019-05-07T16:59:12.754Z,4.13
2019-05-07T17:02:18.840Z,6.67
2019-05-07T17:05:23.680Z,8.93
2019-05-07T17:08:42.434Z,7.60
2019-05-07T17:11:47.180Z,7.53
2019-05-07T17:14:51.904Z,6.83
2019-05-07T17:17:59.467Z,5.33
2019-05-07T17:21:04.227Z,5.53
2019-05-07T17:24:08.679Z,5.73
2019-05-07T17:27:13.116Z,5.83
2019-05-07T17:30:17.553Z,9.00
2019-05-07T17:33:23.011Z,6.33
2019-05-07T17:36:27.671Z,6.20
2019-05-07T17:39:32.336Z,7.63
2019-05-07T17:42:36.756Z,8.37
2019-05-07T17:45:42.916Z,6.03
2019-05-07T17:48:47.857Z,6.47
2019-05-07T17:51:52.748Z,6.33
2019-05-07T17:54:58.423Z,7.57
2019-05-07T17:58:02.892Z,4.70
2019-05-07T18:01:07.678Z,7.00
2019-05-07T18:04:12.537Z,6.63
2019-05-07T18:07:16.988Z,6.57
2019-05-07T18:10:21.801Z,4.37
2019-05-07T18:13:26.589Z,5.27
2019-05-07T18:16:35.191Z,6.00
2019-05-07T18:19:39.964Z,8.17
2019-05-07T18:22:44.693Z,4.17
2019-05-07T18:25:50.791Z,6.70
2019-05-07T18:28:55.223Z,5.27
2019-05-07T18:32:04.008Z,8.37
2019-05-07T18:35:08.986Z,7.60
2019-05-07T18:38:13.420Z,5.97
2019-05-07T18:41:18.292Z,5.23
2019-05-07T18:44:22.730Z,7.67
2019-05-07T18:47:27.551Z,5.50
2019-05-07T18:50:32.600Z,8.40
2019-05-07T18:53:37.065Z,6.23
2019-05-07T18:56:42.089Z,7.53
2019-05-07T18:59:46.619Z,5.83
2019-05-07T19:02:52.312Z,5.37
2019-05-07T19:05:57.415Z,5.37
2019-05-07T19:09:01.927Z,6.53
2019-05-07T19:12:07.920Z,9.60
2019-05-07T19:15:14.322Z,5.30
2019-05-07T19:18:19.072Z,4.63
2019-05-07T19:21:23.621Z,8.90
2019-05-07T19:24:40.831Z,8.00
2019-05-07T19:27:34.584Z,11.40
2019-05-07T19:30:41.920Z,7.20
2019-05-07T19:33:45.898Z,9.07
2019-05-07T19:36:52.063Z,9.17
2019-05-07T19:39:56.749Z,5.50
2019-05-07T19:43:03.028Z,7.17
2019-05-07T19:46:07.992Z,7.40
2019-05-07T19:49:12.443Z,6.23
2019-05-07T19:52:17.336Z,6.37
2019-05-07T19:55:22.078Z,9.23
2019-05-07T19:58:26.637Z,7.67
2019-05-07T20:01:32.716Z,9.33
2019-05-07T20:04:37.156Z,5.50
2019-05-07T20:07:42.292Z,7.63
2019-05-07T20:10:48.552Z,8.63
2019-05-07T20:13:54.256Z,7.93
2019-05-07T20:16:58.651Z,9.20
2019-05-07T20:20:03.744Z,6.37
2019-05-07T20:23:08.192Z,7.50
2019-05-07T20:26:12.848Z,5.90
2019-05-07T20:29:17.684Z,9.40
2019-05-07T20:32:22.553Z,12.17
2019-05-07T20:35:27.355Z,9.90
2019-05-07T20:38:32.197Z,7.70
2019-05-07T20:41:37.072Z,8.17
2019-05-07T20:44:42.590Z,8.00
2019-05-07T20:47:47.100Z,7.40
2019-05-07T20:50:52.200Z,8.70
2019-05-07T20:54:16.635Z,9.67
2019-05-07T20:57:22.717Z,7.17
2019-05-07T21:00:32.401Z,9.57
2019-05-07T21:03:36.863Z,9.07
2019-05-07T21:06:43.226Z,7.80
2019-05-07T21:09:47.753Z,9.07
2019-05-07T21:12:52.496Z,7.93
2019-05-07T21:15:57.224Z,9.10
2019-05-07T21:19:02.142Z,11.70
2019-05-07T21:22:06.656Z,6.90
2019-05-07T21:25:12.035Z,10.77
2019-05-07T21:28:16.627Z,7.10
2019-05-07T21:31:22.731Z,10.43
2019-05-07T21:34:27.409Z,7.67
2019-05-07T21:37:32.422Z,9.67
2019-05-07T21:40:36.963Z,10.07
2019-05-07T21:43:45.599Z,10.90
2019-05-07T21:46:48.213Z,11.13
2019-05-07T21:49:55.140Z,9.27
2019-05-07T21:53:12.049Z,10.50
2019-05-07T21:56:18.583Z,8.23
2019-05-07T21:59:27.178Z,7.10
2019-05-07T22:02:32.783Z,8.27
2019-05-07T22:05:37.359Z,10.17
2019-05-07T22:08:41.806Z,10.87
2019-05-07T22:11:46.240Z,13.07
2019-05-07T22:14:50.962Z,7.73
2019-05-07T22:17:55.711Z,7.77
2019-05-07T22:21:00.141Z,8.47
2019-05-07T22:24:04.727Z,9.73
2019-05-07T22:27:09.472Z,13.00
2019-05-07T22:30:15.946Z,13.00
2019-05-07T22:33:22.351Z,11.23
2019-05-07T22:36:26.637Z,9.87
2019-05-07T22:39:32.733Z,9.97
2019-05-07T22:42:37.631Z,11.90
2019-05-07T22:45:42.832Z,10.57
2019-05-07T22:48:47.371Z,9.13
2019-05-07T22:51:54.629Z,11.97
2019-05-07T22:54:57.959Z,10.03
2019-05-07T22:58:04.359Z,15.13
2019-05-07T23:01:13.595Z,11.70
2019-05-07T23:04:18.330Z,13.53
2019-05-07T23:07:23.058Z,10.77
2019-05-07T23:10:27.498Z,10.20
2019-05-07T23:13:32.200Z,9.20
2019-05-07T23:16:36.642Z,9.37
2019-05-07T23:19:41.941Z,10.57
2019-05-07T23:22:46.397Z,11.70
2019-05-07T23:25:52.420Z,8.93
2019-05-07T23:28:56.952Z,12.40
2019-05-07T23:32:01.948Z,11.97
2019-05-07T23:35:06.647Z,8.87
2019-05-07T23:38:12.197Z,12.20
2019-05-07T23:41:22.513Z,7.70
2019-05-07T23:44:26.955Z,8.50
2019-05-07T23:47:31.887Z,12.23
2019-05-07T23:50:36.341Z,9.47
2019-05-07T23:53:44.169Z,9.37
2019-05-07T23:57:01.803Z,10.87
2019-05-07T23:59:53.409Z,9.90
